Home   Weather   Portugal   Miranda do Douro   Past weeks
Flag for Portugal

Past Weather in Miranda do Douro, Bragança, Portugal — Yesterday and Last 2 Weeks

Currently: 48 °F. Passing clouds. (Weather station: Salamanca / Matacan, Portugal). See more current weather

Past Weather in Miranda do Douro — Graph

°F

Miranda do Douro Temperature Yesterday

Maximum temperature yesterday: 75 °F (at 3:00 pm)
Minimum temperature yesterday: 50 °F (at 7:00 am)
Average temperature yesterday: 62 °F

High & Low Weather Summary for the Past Weeks

 TemperatureHumidityPressure
High79 °F (Apr 13, 2:00 pm)100% (Apr 3, 4:30 am)30.51 "Hg (Apr 3, 4:30 am)
Low32 °F (Apr 9, 4:30 am)18% (Apr 5, 4:30 pm)29.77 "Hg (Apr 1, 8:00 am)
Average55 °F70%30.18 "Hg
* Reported Apr 1 8:00 am — Apr 16 8:00 am, Miranda do Douro. Weather by CustomWeather, © 2024

Note: Actual official high and low records may vary slightly from our data, if they occured in-between our weather recording intervals... More about our weather records

Miranda do Douro Weather History for the Previous 24 Hours

Scroll right to see more
 ConditionsComfort  
Time TempWeatherWind HumidityBarometerVisibility
8:00 am
Tue, Apr 16
48 °FPassing clouds.8 mph82%30.18 "HgN/A
7:30 am48 °FPassing clouds.3 mph82%30.18 "HgN/A
7:00 am45 °FSunny.3 mph93%30.18 "Hg10 mi
6:30 am46 °FClear.5 mph87%30.18 "Hg10 mi
6:00 am46 °FPassing clouds.5 mph87%30.18 "HgN/A
5:30 am48 °FClear.2 mph82%30.18 "Hg10 mi
5:00 am48 °FClear.2 mph82%30.15 "Hg10 mi
4:30 am48 °FPassing clouds.5 mph82%30.15 "HgN/A
4:00 am48 °FClear.7 mph82%30.15 "Hg10 mi
3:30 am50 °FClear.5 mph76%30.18 "Hg10 mi
3:00 am50 °FPassing clouds.5 mph82%30.15 "HgN/A
2:30 am52 °FPassing clouds.3 mph77%30.18 "HgN/A
2:00 am52 °FClear.9 mph77%30.18 "Hg10 mi
1:30 am54 °FClear.13 mph77%30.18 "Hg10 mi
1:00 am52 °FClear.2 mph82%30.21 "Hg10 mi
12:30 am52 °FClear.5 mph82%30.18 "Hg10 mi
12:00 am52 °FClear.3 mph82%30.21 "Hg10 mi
11:30 pm
Mon, Apr 15
55 °FClear.No wind77%30.21 "Hg10 mi
11:00 pm55 °FClear.No wind77%30.18 "Hg10 mi
10:30 pm57 °FClear.1 mph67%30.18 "Hg10 mi
10:00 pm57 °FClear.No wind72%30.18 "Hg10 mi
9:30 pm61 °FClear.No wind59%30.18 "Hg10 mi
9:00 pm63 °FClear.No wind56%30.18 "Hg10 mi
8:30 pm66 °FClear.2 mph49%30.18 "Hg10 mi
8:00 pm68 °FSunny.3 mph43%30.18 "Hg10 mi
7:30 pm68 °FSunny.6 mph43%30.18 "Hg10 mi
7:00 pm70 °FSunny.7 mph40%30.18 "Hg10 mi
6:30 pm73 °FPassing clouds.7 mph38%30.18 "HgN/A
6:00 pm73 °FPassing clouds.5 mph33%30.18 "HgN/A
5:30 pm73 °FPassing clouds.7 mph33%30.18 "HgN/A
5:00 pm73 °FPassing clouds.7 mph41%30.18 "HgN/A
4:30 pm73 °FPassing clouds.7 mph41%30.18 "HgN/A
4:00 pm73 °FPassing clouds.6 mph44%30.18 "HgN/A
3:30 pm73 °FPassing clouds.7 mph38%30.18 "HgN/A
3:00 pm75 °FPassing clouds.5 mph34%30.18 "HgN/A
2:30 pm73 °FPassing clouds.7 mph38%30.21 "HgN/A
2:00 pm73 °FPassing clouds.7 mph38%30.21 "HgN/A
1:30 pm72 °FSunny.6 mph44%30.21 "Hg10 mi
1:00 pm72 °FPassing clouds.7 mph50%30.21 "HgN/A
12:30 pm72 °FPassing clouds.5 mph50%30.21 "HgN/A
12:00 pm72 °FSunny.5 mph53%30.21 "Hg10 mi
11:30 am68 °FPassing clouds.8 mph56%30.24 "HgN/A
11:00 am68 °FPassing clouds.3 mph56%30.24 "HgN/A
10:30 am66 °FPassing clouds.3 mph64%30.24 "HgN/A
10:00 am64 °FSunny.1 mph68%30.24 "Hg10 mi
9:30 am61 °FPassing clouds.3 mph77%30.21 "HgN/A
9:00 am59 °FSunny.2 mph88%30.21 "Hg10 mi
Weather by CustomWeather, © 2024

See weather overview